createdAt,value
2019-05-09T00:00:01.000Z,281.96
2019-05-09T00:01:24.000Z,281.96
2019-05-09T00:03:24.000Z,281.96
2019-05-09T00:04:47.000Z,281.96
2019-05-09T00:06:48.000Z,281.96
2019-05-09T00:08:12.000Z,281.96
2019-05-09T00:10:14.000Z,281.9
2019-05-09T00:11:39.000Z,281.96
2019-05-09T00:13:42.000Z,281.9
2019-05-09T00:15:05.000Z,281.96
2019-05-09T00:17:07.000Z,281.9
2019-05-09T00:18:31.000Z,281.9
2019-05-09T00:20:32.000Z,281.9
2019-05-09T00:21:55.000Z,281.96
2019-05-09T00:23:57.000Z,281.9
2019-05-09T00:25:19.000Z,281.84
2019-05-09T00:27:23.000Z,281.84
2019-05-09T00:28:50.000Z,281.77
2019-05-09T00:30:54.000Z,281.77
2019-05-09T00:32:17.000Z,281.77
2019-05-09T00:34:20.000Z,281.77
2019-05-09T00:35:45.000Z,281.77
2019-05-09T00:37:47.000Z,281.71
2019-05-09T00:39:11.000Z,281.77
2019-05-09T00:41:13.000Z,281.77
2019-05-09T00:42:35.000Z,281.77
2019-05-09T00:44:37.000Z,281.71
2019-05-09T00:46:01.000Z,281.71
2019-05-09T00:48:06.000Z,281.65
2019-05-09T00:49:32.000Z,281.65
2019-05-09T00:51:37.000Z,281.65
2019-05-09T00:53:01.000Z,281.65
2019-05-09T00:55:04.000Z,281.65
2019-05-09T00:56:29.000Z,281.65
2019-05-09T00:58:33.000Z,281.52
2019-05-09T00:59:55.000Z,281.46
2019-05-09T01:01:58.000Z,281.4
2019-05-09T01:03:24.000Z,281.4
2019-05-09T01:05:30.000Z,281.34
2019-05-09T01:06:56.000Z,281.34
2019-05-09T01:09:03.000Z,281.34
2019-05-09T01:10:25.000Z,281.34
2019-05-09T01:12:32.000Z,281.21
2019-05-09T01:13:56.000Z,281.21
2019-05-09T01:16:01.000Z,281.21
2019-05-09T01:17:29.000Z,281.21
2019-05-09T01:19:38.000Z,281.15
2019-05-09T01:21:06.000Z,281.15
2019-05-09T01:23:11.000Z,281.15
2019-05-09T01:24:36.000Z,281.15
2019-05-09T01:26:38.000Z,281.09
2019-05-09T01:28:08.000Z,281.09
2019-05-09T01:30:17.000Z,281.09
2019-05-09T01:31:41.000Z,281.09
2019-05-09T01:33:47.000Z,281.09
2019-05-09T01:35:15.000Z,281.02
2019-05-09T01:37:18.000Z,280.96
2019-05-09T01:38:48.000Z,281.02
2019-05-09T01:40:56.000Z,281.02
2019-05-09T01:42:22.000Z,281.02
2019-05-09T01:44:34.000Z,280.96
2019-05-09T01:46:02.000Z,280.96
2019-05-09T01:48:12.000Z,280.96
2019-05-09T01:49:39.000Z,281.02
2019-05-09T01:51:46.000Z,280.96
2019-05-09T01:53:12.000Z,280.96
2019-05-09T01:55:20.000Z,280.9
2019-05-09T01:56:46.000Z,280.9
2019-05-09T01:58:51.000Z,280.96
2019-05-09T02:00:17.000Z,280.84
2019-05-09T02:02:25.000Z,280.9
2019-05-09T02:03:49.000Z,280.9
2019-05-09T02:06:03.000Z,280.84
2019-05-09T02:07:33.000Z,280.9
2019-05-09T02:09:42.000Z,280.9
2019-05-09T02:11:11.000Z,280.9
2019-05-09T02:13:18.000Z,280.84
2019-05-09T02:14:46.000Z,280.84
2019-05-09T02:17:04.000Z,280.9
2019-05-09T02:18:30.000Z,280.77
2019-05-09T02:20:41.000Z,280.77
2019-05-09T02:22:07.000Z,280.71
2019-05-09T02:24:10.000Z,280.71
2019-05-09T02:25:38.000Z,280.77
2019-05-09T02:27:45.000Z,280.84
2019-05-09T02:29:17.000Z,280.84
2019-05-09T02:31:28.000Z,280.84
2019-05-09T02:32:57.000Z,280.9
2019-05-09T02:35:04.000Z,280.9
2019-05-09T02:36:32.000Z,280.9
2019-05-09T02:38:40.000Z,280.9
2019-05-09T02:40:11.000Z,280.9
2019-05-09T02:42:20.000Z,280.84
2019-05-09T02:43:51.000Z,280.9
2019-05-09T02:46:01.000Z,280.96
2019-05-09T02:47:34.000Z,280.96
2019-05-09T02:49:49.000Z,280.96
2019-05-09T02:51:15.000Z,280.9
2019-05-09T02:53:25.000Z,280.96
2019-05-09T02:54:57.000Z,280.96
2019-05-09T02:57:10.000Z,280.96
2019-05-09T02:58:46.000Z,281.09
2019-05-09T03:00:57.000Z,281.02
2019-05-09T03:02:30.000Z,281.09
2019-05-09T03:04:38.000Z,281.02
2019-05-09T03:06:10.000Z,281.02
2019-05-09T03:08:21.000Z,281.02
2019-05-09T03:09:51.000Z,281.09
2019-05-09T03:12:00.000Z,281.09
2019-05-09T03:13:52.000Z,281.02
2019-05-09T03:16:06.000Z,281.02
2019-05-09T03:17:37.000Z,281.02
2019-05-09T03:19:44.000Z,281.02
2019-05-09T03:21:19.000Z,280.96
2019-05-09T03:23:29.000Z,281.02
2019-05-09T03:24:58.000Z,281.02
2019-05-09T03:27:08.000Z,281.09
2019-05-09T03:28:41.000Z,281.09
2019-05-09T03:30:46.000Z,281.02
2019-05-09T03:32:20.000Z,281.02
2019-05-09T03:39:41.000Z,281.09
2019-05-09T03:41:03.000Z,281.09
2019-05-09T03:43:07.000Z,281.09
2019-05-09T03:44:29.000Z,281.02
2019-05-09T03:46:30.000Z,281.02
2019-05-09T03:47:52.000Z,281.09
2019-05-09T03:49:53.000Z,281.09
2019-05-09T03:51:20.000Z,281.15
2019-05-09T03:53:21.000Z,281.15
2019-05-09T03:54:43.000Z,281.15
2019-05-09T03:56:46.000Z,281.15
2019-05-09T03:58:08.000Z,281.15
2019-05-09T04:00:09.000Z,281.15
2019-05-09T04:01:31.000Z,281.15
2019-05-09T04:03:32.000Z,281.21
2019-05-09T04:04:54.000Z,281.21
2019-05-09T04:06:56.000Z,281.15
2019-05-09T04:08:18.000Z,281.15
2019-05-09T04:10:19.000Z,281.15
2019-05-09T04:11:42.000Z,281.15
2019-05-09T04:13:43.000Z,281.15
2019-05-09T04:15:07.000Z,281.15
2019-05-09T04:17:09.000Z,281.15
2019-05-09T04:18:32.000Z,281.15
2019-05-09T04:20:34.000Z,281.15
2019-05-09T04:21:57.000Z,281.21
2019-05-09T04:24:01.000Z,281.21
2019-05-09T04:25:23.000Z,281.21
2019-05-09T04:27:28.000Z,281.27
2019-05-09T04:28:50.000Z,281.27
2019-05-09T04:30:51.000Z,281.21
2019-05-09T04:32:15.000Z,281.27
2019-05-09T04:34:18.000Z,281.27
2019-05-09T04:35:40.000Z,281.27
2019-05-09T04:37:41.000Z,281.34
2019-05-09T04:39:03.000Z,281.34
2019-05-09T04:41:07.000Z,281.34
2019-05-09T04:42:30.000Z,281.34
2019-05-09T04:44:40.000Z,281.34
2019-05-09T04:46:05.000Z,281.34
2019-05-09T04:48:06.000Z,281.4
2019-05-09T04:49:38.000Z,281.34
2019-05-09T04:51:44.000Z,281.4
2019-05-09T04:53:08.000Z,281.4
2019-05-09T04:55:12.000Z,281.46
2019-05-09T04:56:35.000Z,281.52
2019-05-09T04:58:38.000Z,281.52
2019-05-09T05:00:04.000Z,281.52
2019-05-09T05:02:12.000Z,281.52
2019-05-09T05:03:35.000Z,281.52
2019-05-09T05:05:37.000Z,281.46
2019-05-09T05:07:01.000Z,281.52
2019-05-09T05:09:01.000Z,281.52
2019-05-09T05:10:25.000Z,281.52
2019-05-09T05:12:27.000Z,281.59
2019-05-09T05:13:52.000Z,281.71
2019-05-09T05:15:54.000Z,281.84
2019-05-09T05:17:18.000Z,281.9
2019-05-09T05:19:21.000Z,281.9
2019-05-09T05:20:46.000Z,281.9
2019-05-09T05:22:47.000Z,281.9
2019-05-09T05:24:10.000Z,281.96
2019-05-09T05:26:13.000Z,281.96
2019-05-09T05:27:39.000Z,282.02
2019-05-09T05:29:40.000Z,282.09
2019-05-09T05:31:05.000Z,282.09
2019-05-09T05:33:10.000Z,282.02
2019-05-09T05:34:35.000Z,282.02
2019-05-09T05:36:37.000Z,282.02
2019-05-09T05:37:59.000Z,282.15
2019-05-09T05:40:01.000Z,282.09
2019-05-09T05:41:24.000Z,282.15
2019-05-09T05:43:29.000Z,282.15
2019-05-09T05:45:07.000Z,282.15
2019-05-09T05:47:09.000Z,282.21
2019-05-09T05:48:37.000Z,282.21
2019-05-09T05:50:42.000Z,282.27
2019-05-09T05:52:07.000Z,282.27
2019-05-09T05:54:12.000Z,282.21
2019-05-09T05:55:47.000Z,282.21
2019-05-09T05:57:56.000Z,282.21
2019-05-09T05:59:21.000Z,282.27
2019-05-09T06:01:27.000Z,282.27
2019-05-09T06:02:52.000Z,282.27
2019-05-09T06:05:00.000Z,282.27
2019-05-09T06:06:28.000Z,282.34
2019-05-09T06:08:38.000Z,282.34
2019-05-09T06:10:03.000Z,282.4
2019-05-09T06:12:16.000Z,282.4
2019-05-09T06:13:48.000Z,282.4
2019-05-09T06:16:03.000Z,282.46
2019-05-09T06:17:28.000Z,282.52
2019-05-09T06:19:34.000Z,282.4
2019-05-09T06:21:00.000Z,282.46
2019-05-09T06:23:07.000Z,282.65
2019-05-09T06:24:32.000Z,282.71
2019-05-09T06:26:37.000Z,282.71
2019-05-09T06:27:59.000Z,282.71
2019-05-09T06:30:05.000Z,282.84
2019-05-09T06:31:32.000Z,282.77
2019-05-09T06:33:38.000Z,282.9
2019-05-09T06:35:10.000Z,282.9
2019-05-09T06:37:20.000Z,282.96
2019-05-09T06:38:45.000Z,282.9
2019-05-09T06:40:53.000Z,282.9
2019-05-09T06:42:16.000Z,282.96
2019-05-09T06:44:26.000Z,283.15
2019-05-09T06:45:55.000Z,283.15
2019-05-09T06:48:02.000Z,283.21
2019-05-09T06:49:27.000Z,283.21
2019-05-09T06:51:36.000Z,283.15
2019-05-09T06:53:00.000Z,283.09
2019-05-09T06:55:08.000Z,283.09
2019-05-09T06:56:33.000Z,283.09
2019-05-09T06:58:37.000Z,283.21
2019-05-09T07:00:06.000Z,283.4
2019-05-09T07:02:21.000Z,283.52
2019-05-09T07:03:50.000Z,283.59
2019-05-09T07:05:52.000Z,283.65
2019-05-09T07:07:25.000Z,283.71
2019-05-09T07:09:40.000Z,283.52
2019-05-09T07:11:05.000Z,283.65
2019-05-09T07:13:17.000Z,283.71
2019-05-09T07:14:44.000Z,283.84
2019-05-09T07:16:59.000Z,284.02
2019-05-09T07:18:26.000Z,283.96
2019-05-09T07:20:31.000Z,283.84
2019-05-09T07:21:57.000Z,283.84
2019-05-09T07:24:01.000Z,283.84
2019-05-09T07:25:32.000Z,283.84
2019-05-09T07:27:41.000Z,283.84
2019-05-09T07:29:11.000Z,283.71
2019-05-09T07:31:20.000Z,283.65
2019-05-09T07:32:49.000Z,283.59
2019-05-09T07:34:57.000Z,283.71
2019-05-09T07:36:22.000Z,283.84
2019-05-09T07:38:30.000Z,284.15
2019-05-09T07:39:58.000Z,284.27
2019-05-09T07:42:02.000Z,284.34
2019-05-09T07:43:35.000Z,284.34
2019-05-09T07:45:41.000Z,284.27
2019-05-09T07:47:12.000Z,284.4
2019-05-09T07:49:18.000Z,284.15
2019-05-09T07:50:47.000Z,284.02
2019-05-09T07:52:54.000Z,284.09
2019-05-09T07:54:22.000Z,284.4
2019-05-09T07:56:31.000Z,284.59
2019-05-09T07:57:58.000Z,284.77
2019-05-09T08:00:07.000Z,284.59
2019-05-09T08:01:33.000Z,284.77
2019-05-09T08:03:46.000Z,285.4
2019-05-09T08:05:14.000Z,285.84
2019-05-09T08:07:24.000Z,285.77
2019-05-09T08:08:57.000Z,285.77
2019-05-09T08:11:04.000Z,285.34
2019-05-09T08:12:36.000Z,285.15
2019-05-09T08:14:48.000Z,285.02
2019-05-09T08:16:42.000Z,285.02
2019-05-09T08:18:55.000Z,285.09
2019-05-09T08:20:25.000Z,284.96
2019-05-09T08:22:38.000Z,285.21
2019-05-09T08:24:18.000Z,285.46
2019-05-09T08:26:32.000Z,285.21
2019-05-09T08:28:02.000Z,285.4
2019-05-09T08:35:31.000Z,285.46
2019-05-09T08:36:53.000Z,285.46
2019-05-09T08:38:56.000Z,285.46
2019-05-09T08:40:19.000Z,285.59
2019-05-09T08:42:20.000Z,285.71
2019-05-09T08:43:42.000Z,285.84
2019-05-09T08:45:43.000Z,286.4
2019-05-09T08:47:06.000Z,286.27
2019-05-09T08:49:07.000Z,286.02
2019-05-09T08:50:29.000Z,285.77
2019-05-09T08:52:30.000Z,286.09
2019-05-09T08:53:52.000Z,286.4
2019-05-09T08:55:53.000Z,285.84
2019-05-09T08:57:19.000Z,285.59
2019-05-09T08:59:22.000Z,285.4
2019-05-09T09:00:44.000Z,285.21
2019-05-09T09:02:48.000Z,285.09
2019-05-09T09:04:10.000Z,285.02
2019-05-09T09:06:11.000Z,284.84
2019-05-09T09:07:33.000Z,284.84
2019-05-09T09:09:37.000Z,284.59
2019-05-09T09:10:59.000Z,284.46
2019-05-09T09:13:01.000Z,284.9
2019-05-09T09:14:23.000Z,284.9
2019-05-09T09:16:29.000Z,285.46
2019-05-09T09:17:51.000Z,285.77
2019-05-09T09:19:52.000Z,286.09
2019-05-09T09:21:16.000Z,286.21
2019-05-09T09:23:19.000Z,286.15
2019-05-09T09:24:41.000Z,286.15
2019-05-09T09:26:42.000Z,285.84
2019-05-09T09:28:04.000Z,285.9
2019-05-09T09:30:09.000Z,285.9
2019-05-09T09:31:44.000Z,285.84
2019-05-09T09:33:48.000Z,285.96
2019-05-09T09:35:10.000Z,285.59
2019-05-09T09:37:11.000Z,285.27
2019-05-09T09:38:33.000Z,285.34
2019-05-09T09:40:37.000Z,285.4
2019-05-09T09:41:59.000Z,285.46
2019-05-09T09:44:00.000Z,285.52
2019-05-09T09:45:23.000Z,285.65
2019-05-09T09:47:26.000Z,285.65
2019-05-09T09:48:49.000Z,285.9
2019-05-09T09:50:51.000Z,286.21
2019-05-09T09:52:16.000Z,286.34
2019-05-09T09:54:17.000Z,286.34
2019-05-09T09:55:40.000Z,286.27
2019-05-09T09:57:44.000Z,286.4
2019-05-09T09:59:11.000Z,286.34
2019-05-09T10:01:17.000Z,286.02
2019-05-09T10:02:41.000Z,286.09
2019-05-09T10:04:42.000Z,286.09
2019-05-09T10:06:05.000Z,286.15
2019-05-09T10:08:10.000Z,286.21
2019-05-09T10:09:35.000Z,286.09
2019-05-09T10:11:36.000Z,286.09
2019-05-09T10:12:59.000Z,286.34
2019-05-09T10:15:03.000Z,286.46
2019-05-09T10:16:26.000Z,286.52
2019-05-09T10:18:33.000Z,286.71
2019-05-09T10:19:56.000Z,286.65
2019-05-09T10:21:59.000Z,286.27
2019-05-09T10:23:21.000Z,285.96
2019-05-09T10:25:24.000Z,286.27
2019-05-09T10:26:50.000Z,286.52
2019-05-09T10:28:52.000Z,286.77
2019-05-09T10:30:15.000Z,286.84
2019-05-09T10:32:17.000Z,287.15
2019-05-09T10:33:41.000Z,287.52
2019-05-09T10:35:44.000Z,287.46
2019-05-09T10:37:09.000Z,287.21
2019-05-09T10:39:14.000Z,286.84
2019-05-09T10:40:38.000Z,286.59
2019-05-09T10:42:43.000Z,286.21
2019-05-09T10:44:09.000Z,286.15
2019-05-09T10:46:16.000Z,285.52
2019-05-09T10:47:39.000Z,285.34
2019-05-09T10:49:42.000Z,285.52
2019-05-09T10:51:06.000Z,285.52
2019-05-09T10:53:11.000Z,285.77
2019-05-09T10:54:34.000Z,285.71
2019-05-09T10:56:39.000Z,285.52
2019-05-09T10:58:04.000Z,285.46
2019-05-09T11:00:08.000Z,285.34
2019-05-09T11:01:36.000Z,285.09
2019-05-09T11:03:38.000Z,285.27
2019-05-09T11:05:07.000Z,285.21
2019-05-09T11:07:15.000Z,285.27
2019-05-09T11:08:40.000Z,285.59
2019-05-09T11:10:46.000Z,285.52
2019-05-09T11:12:11.000Z,285.84
2019-05-09T11:14:15.000Z,286.34
2019-05-09T11:16:01.000Z,286.59
2019-05-09T11:18:09.000Z,286.59
2019-05-09T11:19:35.000Z,286.4
2019-05-09T11:21:37.000Z,286.52
2019-05-09T11:23:08.000Z,286.46
2019-05-09T11:25:12.000Z,286.4
2019-05-09T11:26:36.000Z,286.46
2019-05-09T11:30:16.000Z,286.52
2019-05-09T11:31:04.000Z,286.46
2019-05-09T11:32:35.000Z,286.27
2019-05-09T11:34:41.000Z,286.34
2019-05-09T11:36:08.000Z,286.21
2019-05-09T11:38:16.000Z,285.71
2019-05-09T11:40:03.000Z,285.77
2019-05-09T11:42:07.000Z,285.77
2019-05-09T11:43:33.000Z,285.77
2019-05-09T11:45:43.000Z,285.77
2019-05-09T11:47:13.000Z,286.15
2019-05-09T11:49:40.000Z,286.84
2019-05-09T11:51:12.000Z,286.84
2019-05-09T11:53:13.000Z,286.52
2019-05-09T11:54:40.000Z,286.46
2019-05-09T11:56:51.000Z,286.46
2019-05-09T11:58:23.000Z,286.65
2019-05-09T12:00:31.000Z,286.27
2019-05-09T12:02:01.000Z,286.02
2019-05-09T12:04:06.000Z,286.27
2019-05-09T12:05:32.000Z,286.46
2019-05-09T12:07:39.000Z,286.59
2019-05-09T12:09:09.000Z,286.21
2019-05-09T12:11:22.000Z,285.96
2019-05-09T12:12:47.000Z,286.15
2019-05-09T12:15:08.000Z,286.27
2019-05-09T12:16:39.000Z,285.9
2019-05-09T12:18:50.000Z,285.77
2019-05-09T12:20:20.000Z,285.71
2019-05-09T12:22:26.000Z,285.96
2019-05-09T12:23:56.000Z,285.9
2019-05-09T12:26:06.000Z,285.9
2019-05-09T12:27:38.000Z,286.02
2019-05-09T12:29:53.000Z,286.15
2019-05-09T12:31:28.000Z,286.15
2019-05-09T12:33:36.000Z,286.21
2019-05-09T12:35:07.000Z,286.34
2019-05-09T12:37:19.000Z,286.52
2019-05-09T12:38:48.000Z,286.34
2019-05-09T12:40:57.000Z,286.4
2019-05-09T12:42:32.000Z,286.59
2019-05-09T12:44:46.000Z,286.46
2019-05-09T12:46:18.000Z,286.71
2019-05-09T12:48:28.000Z,286.9
2019-05-09T12:49:54.000Z,287.02
2019-05-09T12:52:09.000Z,286.65
2019-05-09T12:53:40.000Z,286.4
2019-05-09T12:55:52.000Z,286.27
2019-05-09T12:57:22.000Z,286.02
2019-05-09T12:59:28.000Z,285.65
2019-05-09T13:01:16.000Z,285.84
2019-05-09T13:03:26.000Z,285.9
2019-05-09T13:04:57.000Z,286.02
2019-05-09T13:07:06.000Z,285.9
2019-05-09T13:08:36.000Z,286.02
2019-05-09T13:12:19.000Z,286.09
2019-05-09T13:18:22.000Z,286.46
2019-05-09T13:19:48.000Z,286.46
2019-05-09T13:21:50.000Z,286.21
2019-05-09T13:23:12.000Z,286.09
2019-05-09T13:25:16.000Z,285.96
2019-05-09T13:26:39.000Z,286.09
2019-05-09T13:28:40.000Z,286.21
2019-05-09T13:30:03.000Z,286.21
2019-05-09T13:32:04.000Z,286.21
2019-05-09T13:33:28.000Z,286.34
2019-05-09T13:35:29.000Z,286.34
2019-05-09T13:36:51.000Z,286.34
2019-05-09T13:38:52.000Z,286.21
2019-05-09T13:40:24.000Z,286.09
2019-05-09T13:42:28.000Z,286.02
2019-05-09T13:43:50.000Z,285.96
2019-05-09T13:46:02.000Z,285.84
2019-05-09T13:47:24.000Z,286.02
2019-05-09T13:49:27.000Z,285.9
2019-05-09T13:50:49.000Z,285.84
2019-05-09T13:52:50.000Z,285.9
2019-05-09T13:54:12.000Z,285.84
2019-05-09T13:56:15.000Z,286.02
2019-05-09T13:57:39.000Z,286.09
2019-05-09T13:59:40.000Z,286.15
2019-05-09T14:01:02.000Z,285.96
2019-05-09T14:03:07.000Z,286.02
2019-05-09T14:04:29.000Z,286.02
2019-05-09T14:06:30.000Z,286.09
2019-05-09T14:07:52.000Z,285.96
2019-05-09T14:09:56.000Z,285.9
2019-05-09T14:11:18.000Z,286.02
2019-05-09T14:13:20.000Z,285.9
2019-05-09T14:14:43.000Z,285.96
2019-05-09T14:16:44.000Z,285.9
2019-05-09T14:18:07.000Z,285.96
2019-05-09T14:20:08.000Z,286.09
2019-05-09T14:21:30.000Z,286.15
2019-05-09T14:23:32.000Z,286.21
2019-05-09T14:25:05.000Z,286.27
2019-05-09T14:27:12.000Z,286.27
2019-05-09T14:28:34.000Z,286.34
2019-05-09T14:30:35.000Z,286.15
2019-05-09T14:31:59.000Z,286.09
2019-05-09T14:34:04.000Z,286.34
2019-05-09T14:35:31.000Z,286.34
2019-05-09T14:37:37.000Z,286.59
2019-05-09T14:38:59.000Z,286.59
2019-05-09T14:41:02.000Z,286.59
2019-05-09T14:42:25.000Z,286.59
2019-05-09T14:44:29.000Z,286.59
2019-05-09T14:45:53.000Z,286.52
2019-05-09T14:47:59.000Z,286.27
2019-05-09T14:49:22.000Z,286.27
2019-05-09T14:51:43.000Z,286.27
2019-05-09T14:53:07.000Z,286.15
2019-05-09T14:55:12.000Z,286.34
2019-05-09T14:56:35.000Z,286.4
2019-05-09T14:58:43.000Z,286.34
2019-05-09T15:00:09.000Z,286.27
2019-05-09T15:02:12.000Z,286.46
2019-05-09T15:03:35.000Z,286.27
2019-05-09T15:05:39.000Z,286.15
2019-05-09T15:07:06.000Z,286.4
2019-05-09T15:09:08.000Z,285.9
2019-05-09T15:10:31.000Z,285.84
2019-05-09T15:12:32.000Z,286.15
2019-05-09T15:13:57.000Z,286.21
2019-05-09T15:16:03.000Z,286.21
2019-05-09T15:17:25.000Z,286.21
2019-05-09T15:19:30.000Z,286.15
2019-05-09T15:20:54.000Z,286.15
2019-05-09T15:22:59.000Z,286.27
2019-05-09T15:24:21.000Z,285.96
2019-05-09T15:26:25.000Z,285.71
2019-05-09T15:27:48.000Z,285.9
2019-05-09T15:29:50.000Z,286.02
2019-05-09T15:31:15.000Z,286.09
2019-05-09T15:33:21.000Z,286.15
2019-05-09T15:34:45.000Z,286.09
2019-05-09T15:36:51.000Z,285.96
2019-05-09T15:38:16.000Z,285.96
2019-05-09T15:40:19.000Z,285.77
2019-05-09T15:41:42.000Z,285.71
2019-05-09T15:43:48.000Z,285.77
2019-05-09T15:45:20.000Z,285.77
2019-05-09T15:47:27.000Z,285.96
2019-05-09T15:48:49.000Z,286.02
2019-05-09T15:50:55.000Z,286.09
2019-05-09T15:52:22.000Z,286.15
2019-05-09T15:54:30.000Z,286.02
2019-05-09T15:55:52.000Z,286.09
2019-05-09T15:57:56.000Z,286.09
2019-05-09T15:59:22.000Z,286.15
2019-05-09T16:01:32.000Z,286.27
2019-05-09T16:02:57.000Z,286.02
2019-05-09T16:05:05.000Z,286.02
2019-05-09T16:06:36.000Z,286.09
2019-05-09T16:08:43.000Z,286.09
2019-05-09T16:10:09.000Z,286.09
2019-05-09T16:12:17.000Z,286.09
2019-05-09T16:13:44.000Z,285.96
2019-05-09T16:15:50.000Z,285.77
2019-05-09T16:17:21.000Z,285.59
2019-05-09T16:19:22.000Z,285.34
2019-05-09T16:20:51.000Z,285.15
2019-05-09T16:22:58.000Z,284.9
2019-05-09T16:24:23.000Z,284.9
2019-05-09T16:26:34.000Z,284.96
2019-05-09T16:28:07.000Z,284.84
2019-05-09T16:30:11.000Z,284.59
2019-05-09T16:31:37.000Z,284.59
2019-05-09T16:33:43.000Z,284.52
2019-05-09T16:35:12.000Z,284.65
2019-05-09T16:37:14.000Z,284.59
2019-05-09T16:38:39.000Z,284.59
2019-05-09T16:40:48.000Z,284.59
2019-05-09T16:42:16.000Z,284.71
2019-05-09T16:44:22.000Z,284.71
2019-05-09T16:45:47.000Z,284.65
2019-05-09T16:47:53.000Z,284.46
2019-05-09T16:49:22.000Z,284.4
2019-05-09T16:51:33.000Z,284.4
2019-05-09T16:53:04.000Z,284.46
2019-05-09T16:55:16.000Z,284.71
2019-05-09T16:56:44.000Z,284.71
2019-05-09T16:58:49.000Z,284.4
2019-05-09T17:00:18.000Z,284.4
2019-05-09T17:02:25.000Z,284.46
2019-05-09T17:03:53.000Z,284.4
2019-05-09T17:06:03.000Z,284.27
2019-05-09T17:07:39.000Z,284.4
2019-05-09T17:09:54.000Z,284.52
2019-05-09T17:11:24.000Z,284.34
2019-05-09T17:13:37.000Z,284.34
2019-05-09T17:15:09.000Z,284.27
2019-05-09T17:17:20.000Z,284.21
2019-05-09T17:18:47.000Z,284.4
2019-05-09T17:21:01.000Z,284.4
2019-05-09T17:22:44.000Z,284.27
2019-05-09T17:24:50.000Z,283.96
2019-05-09T17:26:24.000Z,284.02
2019-05-09T17:28:33.000Z,284.02
2019-05-09T17:30:03.000Z,283.96
2019-05-09T17:32:16.000Z,283.96
2019-05-09T17:33:48.000Z,284.02
2019-05-09T17:35:57.000Z,283.96
2019-05-09T17:37:30.000Z,284.09
2019-05-09T17:39:39.000Z,284.15
2019-05-09T17:41:09.000Z,284.27
2019-05-09T17:43:22.000Z,284.4
2019-05-09T17:44:54.000Z,284.4
2019-05-09T17:55:11.000Z,284.15
2019-05-09T18:01:42.000Z,284.27
2019-05-09T18:03:04.000Z,284.27
2019-05-09T18:05:05.000Z,284.21
2019-05-09T18:06:28.000Z,284.09
2019-05-09T18:08:29.000Z,284.02
2019-05-09T18:09:52.000Z,284.02
2019-05-09T18:11:53.000Z,284.21
2019-05-09T18:13:17.000Z,284.27
2019-05-09T18:15:22.000Z,284.02
2019-05-09T18:16:48.000Z,284.09
2019-05-09T18:18:50.000Z,283.9
2019-05-09T18:20:13.000Z,283.84
2019-05-09T18:22:16.000Z,283.77
2019-05-09T18:23:40.000Z,283.77
2019-05-09T18:25:41.000Z,283.84
2019-05-09T18:27:03.000Z,283.84
2019-05-09T18:29:06.000Z,283.71
2019-05-09T18:30:28.000Z,283.71
2019-05-09T18:32:29.000Z,283.71
2019-05-09T18:33:51.000Z,283.71
2019-05-09T18:35:52.000Z,283.65
2019-05-09T18:37:14.000Z,283.65
2019-05-09T18:39:16.000Z,283.46
2019-05-09T18:40:38.000Z,283.27
2019-05-09T18:42:39.000Z,283.02
2019-05-09T18:44:01.000Z,282.96
2019-05-09T18:46:12.000Z,282.84
2019-05-09T18:47:34.000Z,282.77
2019-05-09T18:49:37.000Z,282.77
2019-05-09T18:51:01.000Z,282.77
2019-05-09T18:53:05.000Z,282.71
2019-05-09T18:54:30.000Z,282.71
2019-05-09T18:56:32.000Z,282.59
2019-05-09T18:57:55.000Z,282.59
2019-05-09T18:59:56.000Z,282.59
2019-05-09T19:01:19.000Z,282.59
2019-05-09T19:03:21.000Z,282.65
2019-05-09T19:04:45.000Z,282.65
2019-05-09T19:06:47.000Z,282.65
2019-05-09T19:08:10.000Z,282.71
2019-05-09T19:10:12.000Z,282.52
2019-05-09T19:11:34.000Z,282.34
2019-05-09T19:13:36.000Z,282.09
2019-05-09T19:14:59.000Z,282.02
2019-05-09T19:17:00.000Z,281.96
2019-05-09T19:18:23.000Z,282.02
2019-05-09T19:20:25.000Z,282.15
2019-05-09T19:21:47.000Z,282.21
2019-05-09T19:23:48.000Z,282.15
2019-05-09T19:25:12.000Z,281.96
2019-05-09T19:27:15.000Z,281.9
2019-05-09T19:28:37.000Z,281.96
2019-05-09T19:30:41.000Z,282.02
2019-05-09T19:32:03.000Z,281.96
2019-05-09T19:34:05.000Z,281.77
2019-05-09T19:35:28.000Z,281.77
2019-05-09T19:37:32.000Z,281.77
2019-05-09T19:38:56.000Z,281.84
2019-05-09T19:40:57.000Z,281.71
2019-05-09T19:42:23.000Z,281.65
2019-05-09T19:44:25.000Z,281.52
2019-05-09T19:45:50.000Z,281.46
2019-05-09T19:47:53.000Z,281.34
2019-05-09T19:49:17.000Z,281.34
2019-05-09T19:51:21.000Z,281.27
2019-05-09T19:52:45.000Z,281.27
2019-05-09T19:54:50.000Z,281.27
2019-05-09T19:56:14.000Z,281.27
2019-05-09T19:58:17.000Z,281.21
2019-05-09T19:59:41.000Z,281.34
2019-05-09T20:01:44.000Z,281.4
2019-05-09T20:03:09.000Z,281.46
2019-05-09T20:05:12.000Z,281.4
2019-05-09T20:06:34.000Z,281.52
2019-05-09T20:08:36.000Z,281.4
2019-05-09T20:10:01.000Z,281.21
2019-05-09T20:12:05.000Z,281.09
2019-05-09T20:13:29.000Z,280.96
2019-05-09T20:15:32.000Z,280.96
2019-05-09T20:16:56.000Z,280.96
2019-05-09T20:19:00.000Z,280.84
2019-05-09T20:20:29.000Z,280.84
2019-05-09T20:22:39.000Z,280.65
2019-05-09T20:24:14.000Z,280.59
2019-05-09T20:26:22.000Z,280.52
2019-05-09T20:27:50.000Z,280.4
2019-05-09T20:29:53.000Z,280.4
2019-05-09T20:31:20.000Z,280.34
2019-05-09T20:33:25.000Z,280.21
2019-05-09T20:34:50.000Z,280.21
2019-05-09T20:36:58.000Z,280.15
2019-05-09T20:38:25.000Z,280.09
2019-05-09T20:40:28.000Z,280.02
2019-05-09T20:41:52.000Z,280.15
2019-05-09T20:43:58.000Z,280.27
2019-05-09T20:45:21.000Z,280.27
2019-05-09T20:47:29.000Z,280.15
2019-05-09T20:48:56.000Z,280.09
2019-05-09T20:51:01.000Z,280.02
2019-05-09T20:52:27.000Z,280.09
2019-05-09T20:54:32.000Z,280.09
2019-05-09T20:55:56.000Z,280.09
2019-05-09T20:58:00.000Z,280.02
2019-05-09T20:59:27.000Z,280.09
2019-05-09T21:01:35.000Z,279.96
2019-05-09T21:02:59.000Z,279.96
2019-05-09T21:05:04.000Z,280.02
2019-05-09T21:06:30.000Z,280.15
2019-05-09T21:08:41.000Z,280.21
2019-05-09T21:10:06.000Z,280.15
2019-05-09T21:12:14.000Z,280.15
2019-05-09T21:13:40.000Z,280.15
2019-05-09T21:15:53.000Z,280.15
2019-05-09T21:17:20.000Z,280.21
2019-05-09T21:19:25.000Z,280.27
2019-05-09T21:20:55.000Z,280.27
2019-05-09T21:22:59.000Z,280.15
2019-05-09T21:24:22.000Z,280.21
2019-05-09T21:26:29.000Z,280.34
2019-05-09T21:27:58.000Z,280.4
2019-05-09T21:30:06.000Z,280.4
2019-05-09T21:31:29.000Z,280.4
2019-05-09T21:33:38.000Z,280.4
2019-05-09T21:35:01.000Z,280.46
2019-05-09T21:37:11.000Z,280.4
2019-05-09T21:38:41.000Z,280.4
2019-05-09T21:40:51.000Z,280.46
2019-05-09T21:42:21.000Z,280.4
2019-05-09T21:44:27.000Z,280.34
2019-05-09T21:45:57.000Z,280.34
2019-05-09T21:48:08.000Z,280.34
2019-05-09T21:49:36.000Z,280.4
2019-05-09T21:51:39.000Z,280.46
2019-05-09T21:53:08.000Z,280.52
2019-05-09T21:55:16.000Z,280.52
2019-05-09T21:56:46.000Z,280.4
2019-05-09T21:58:59.000Z,280.4
2019-05-09T22:00:25.000Z,280.34
2019-05-09T22:02:36.000Z,280.27
2019-05-09T22:04:06.000Z,280.21
2019-05-09T22:06:18.000Z,280.27
2019-05-09T22:07:51.000Z,280.34
2019-05-09T22:10:01.000Z,280.46
2019-05-09T22:11:32.000Z,280.4
2019-05-09T22:13:46.000Z,280.46
2019-05-09T22:15:12.000Z,280.46
2019-05-09T22:17:22.000Z,280.59
2019-05-09T22:18:55.000Z,280.65
2019-05-09T22:21:08.000Z,280.77
2019-05-09T22:22:40.000Z,280.84
2019-05-09T22:24:51.000Z,280.9
2019-05-09T22:26:23.000Z,280.96
2019-05-09T22:28:35.000Z,281.46
2019-05-09T22:30:04.000Z,281.96
2019-05-09T22:32:16.000Z,281.96
2019-05-09T22:33:49.000Z,282.02
2019-05-09T22:37:30.000Z,282.02
2019-05-09T22:38:04.000Z,282.02
2019-05-09T22:39:32.000Z,282.27